This is the latest recevied weather packets stored in our database for station/object F8KGK-5. If no packets are shown the sender has not sent any weather packets the latest 1 day(s).
| Time | Temp. | Humidity | Pressure | Rain* | Wind** | Luminosity | Snow |
|---|---|---|---|---|---|---|---|
| 1777997055 | 15° C | 73% | 1002.1 hPa | 0 mm | 3.58 m/s, 353° | - | - |
| 1777995253 | 14.44° C | 75% | 1002.2 hPa | 0 mm | 3.58 m/s, 13° | - | - |
| 1777991854 | 15.56° C | 72% | 1002 hPa | 0 mm | 1.79 m/s, 3° | - | - |
| 1777990053 | 15.56° C | 71% | 1002.1 hPa | 0 mm | 3.13 m/s, 358° | - | - |
| 1777988253 | 15° C | 73% | 1002.3 hPa | 0 mm | 2.68 m/s, 356° | - | - |
| 1777986454 | 14.44° C | 74% | 1002.5 hPa | 0 mm | 2.68 m/s, 349° | - | - |
| 1777984654 | 15° C | 73% | 1002.6 hPa | 0 mm | 3.58 m/s, 347° | - | - |
| 1777982854 | 14.44° C | 76% | 1002.9 hPa | 0 mm | 2.68 m/s, 8° | - | - |
| 1777981054 | 12.78° C | 79% | 1003.1 hPa | 0 mm | 3.58 m/s, 12° | - | - |
| 1777979254 | 13.33° C | 78% | 1003.2 hPa | 0 mm | 3.58 m/s, 18° | - | - |
| 1777977454 | 13.33° C | 80% | 1003.3 hPa | 0 mm | 1.79 m/s, 352° | - | - |
| 1777975655 | 12.78° C | 83% | 1003.3 hPa | 0 mm | 3.13 m/s, 10° | - | - |
| 1777973854 | 12.22° C | 84% | 1003.3 hPa | 0 mm | 4.02 m/s, 21° | - | - |
| 1777973853 | 12.22° C | 84% | 1003.3 hPa | 0 mm | 4.02 m/s, 21° | - | - |
| 1777972053 | 11.67° C | 86% | 1003.4 hPa | 0 mm | 3.13 m/s, 2° | - | - |
| 1777970253 | 11.11° C | 87% | 1003.4 hPa | 0 mm | 2.24 m/s, 44° | - | - |
| 1777968454 | 11.11° C | 88% | 1003.3 hPa | 0 mm | 4.02 m/s, 11° | - | - |
| 1777966654 | 11.11° C | 89% | 1003.3 hPa | 0 mm | 2.68 m/s, 5° | - | - |
| 1777964853 | 11.11° C | 88% | 1003.2 hPa | 0 mm | 3.58 m/s, 12° | - | - |
| 1777963054 | 11.11° C | 89% | 1003.5 hPa | 0 mm | 2.68 m/s, 5° | - | - |
| 1777961254 | 11.11° C | 89% | 1003.6 hPa | 0 mm | 4.02 m/s, 9° | - | - |
| 1777959453 | 11.11° C | 88% | 1003.5 hPa | 0 mm | 3.58 m/s, 18° | - | - |
| 1777957653 | 11.11° C | 88% | 1003.5 hPa | 0 mm | 4.02 m/s, 16° | - | - |
| 1777955853 | 11.11° C | 88% | 1003.4 hPa | 0 mm | 3.13 m/s, 8° | - | - |
| 1777954052 | 11.11° C | 88% | 1003.6 hPa | 0 mm | 3.13 m/s, 5° | - | - |
* Rain latest hour (hover to see other rain measurements)
** Current wind speed in m/s (hover to see current wind gust speed)